Muskrat Dam Airport
CZMD : now visible

Airfield :











YOU CAN JOIN US ON...

 
LOGIN :

Register | Disclaimer

   EN    FR    IT 

 









Legend :    VFR   Marginal VFR   IFR   Intensive IFR   Very Intensive IFR
Visi :
Ceiling :
>= 8 km
>= 3000ft
5 to 8 km
1000 to 3000 ft
1500m to 5 km
500 to 1000 ft
800 to 1500m
200 to 500 ft
< 800m
< 200 ft
Symbols :   Thunderstorms  Fog  Heavy snow  Heavy precipitations  Wind > 20 kt






- Airport Elevation : 911 ft
- IATA code : MSA


CZMD - Muskrat Dam

CURRENT METAR :
  • 221300Z AUTO 19003KT 9SM CLR 05/M02 A3006 RMK SLP195

EXPIRED METARs :
  • 221200Z AUTO 21004KT 9SM CLR 01/M02 A3006 RMK SLP195
  • 221100Z AUTO 23003KT 9SM CLR M00/M02 A3005 RMK SLP194

TAF TAF CZMD
Valid from the 22 at 10:00 until the 22 at 22:00 UTC


220940Z 2210/2222 VRB03KT P6SM SKC
FM221600 26008G18KT P6SM BKN060 RMK FCST BASED ON AUTO OBS. NXT FCST BY 221600Z
CZWG FIR / North America



MET'MAP, your aeronautical weather chart ! - Copyright ORBIFLY December 2007 - Disclaimer

ORBIFLY MET'MAP TEAM :

Programming & Development : Alexandra Zaïnal
Original concept : Baudouin d'Aumeries
Technical & hardware support : Manuel Goepfert
Assistance : Marc-Olivier Méhu

Contact : metmap@orbifly.com




SOURCES & CREDITS :

   NOAA       Earth
Advisory